Time;durP1;ratioP1;P1;durP2;ratioP2;P2;SDS_P1;SDS_P2;PMS_P1;PMS_P2;Temp;Humidity;BMP_temperature;BMP_pressure;BME280_temperature;BME280_humidity;BME280_pressure;Samples;Min_cycle;Max_cycle;Signal;HPM_P1;HPM_P2
2023/02/08 00:01:45;;;;;;;19.65;7.60;;;;;;;-5.42;67.19;102972.79;1642612;87;21158;-60
2023/02/08 00:04:14;;;;;;;17.12;7.20;;;;;;;-5.48;67.10;102970.25;1642807;87;21143;-60
2023/02/08 00:06:43;;;;;;;18.12;7.33;;;;;;;-5.53;67.29;102973.47;1642821;87;21183;-60
2023/02/08 00:09:14;;;;;;;18.37;7.17;;;;;;;-5.59;67.44;102973.60;1659051;83;21598;-61
2023/02/08 00:11:43;;;;;;;19.80;7.95;;;;;;;-5.61;67.62;102983.89;1722547;83;21100;-62
2023/02/08 00:14:12;;;;;;;20.27;7.87;;;;;;;-5.62;67.77;102984.34;1678948;85;21173;-60
2023/02/08 00:16:42;;;;;;;19.90;7.80;;;;;;;-5.66;67.81;102985.77;1702734;83;21156;-60
2023/02/08 00:19:12;;;;;;;20.45;7.50;;;;;;;-5.67;67.96;102982.22;1678599;85;21120;-61
2023/02/08 00:21:42;;;;;;;23.77;8.28;;;;;;;-5.66;68.04;102977.30;1722634;83;21160;-62
2023/02/08 00:24:12;;;;;;;20.97;7.65;;;;;;;-5.66;68.21;102977.30;1678736;85;21202;-61
2023/02/08 00:26:42;;;;;;;19.90;7.70;;;;;;;-5.61;68.38;102975.87;1722948;83;21175;-61
2023/02/08 00:29:11;;;;;;;17.45;7.33;;;;;;;-5.59;68.35;102978.06;1678851;85;21270;-60
2023/02/08 00:31:40;;;;;;;24.02;8.70;;;;;;;-5.60;68.25;102986.53;1722943;83;21211;-61
2023/02/08 00:34:10;;;;;;;21.57;8.15;;;;;;;-5.64;68.10;102990.17;1678675;85;21203;-62
2023/02/08 00:36:42;;;;;;;24.02;8.78;;;;;;;-5.71;68.06;102994.33;1722878;83;21124;-62
2023/02/08 00:39:12;;;;;;;22.73;8.65;;;;;;;-5.76;68.30;102994.42;1678798;85;21167;-62
2023/02/08 00:41:43;;;;;;;22.48;9.25;;;;;;;-5.78;68.50;102997.58;1722719;83;21124;-63
2023/02/08 00:44:12;;;;;;;22.25;8.63;;;;;;;-5.82;68.44;102999.87;1678691;85;21570;-61
2023/02/08 00:46:43;;;;;;;20.08;8.38;;;;;;;-5.84;68.68;102998.58;1722806;83;21168;-63
2023/02/08 00:49:12;;;;;;;22.80;9.15;;;;;;;-5.79;68.58;102994.48;1666958;85;21567;-62
2023/02/08 00:51:42;;;;;;;25.15;9.15;;;;;;;-5.77;68.56;103000.22;1723048;83;21583;-62
2023/02/08 00:54:14;;;;;;;25.50;8.50;;;;;;;-5.76;68.63;103000.64;1666836;85;21112;-61
2023/02/08 00:56:43;;;;;;;21.37;8.98;;;;;;;-5.70;68.67;103003.64;1722719;83;21180;-62
2023/02/08 00:59:12;;;;;;;25.10;10.00;;;;;;;-5.70;68.34;103014.33;1678890;85;21181;-62
2023/02/08 01:01:43;;;;;;;25.20;10.30;;;;;;;-5.72;68.32;103026.83;1722676;83;21124;-60
2023/02/08 01:04:13;;;;;;;23.20;8.90;;;;;;;-5.76;68.36;103026.01;1723182;82;21105;-62
2023/02/08 01:06:43;;;;;;;21.75;8.65;;;;;;;-5.79;68.49;103026.06;1685591;84;21193;-62
2023/02/08 01:09:12;;;;;;;22.67;9.23;;;;;;;-5.87;68.53;103029.75;1723486;82;21132;-63
2023/02/08 01:11:44;;;;;;;21.40;8.33;;;;;;;-5.90;68.55;103024.50;1722863;83;21120;-62
2023/02/08 01:14:13;;;;;;;21.48;8.05;;;;;;;-5.86;68.65;103034.19;1687590;84;21598;-61
2023/02/08 01:16:43;;;;;;;18.25;7.65;;;;;;;-5.86;68.55;103039.07;1722888;83;21155;-62
2023/02/08 01:19:12;;;;;;;23.50;8.15;;;;;;;-5.87;68.55;103047.11;1702877;83;21148;-64
2023/02/08 01:21:41;;;;;;;21.87;8.20;;;;;;;-5.88;68.37;103053.35;1687657;84;21140;-63
2023/02/08 01:24:10;;;;;;;19.17;7.55;;;;;;;-5.89;68.25;103059.64;1727293;83;21124;-63
2023/02/08 01:26:39;;;;;;;19.27;7.97;;;;;;;-5.92;68.30;103056.56;1727227;83;21183;-63
2023/02/08 01:29:12;;;;;;;19.30;8.25;;;;;;;-5.94;68.15;103054.83;1722466;83;21887;-64
2023/02/08 01:31:42;;;;;;;19.05;7.97;;;;;;;-5.99;68.27;103060.25;1691409;84;21132;-64
2023/02/08 01:34:12;;;;;;;17.67;7.28;;;;;;;-5.99;68.37;103060.70;1727263;83;21152;-64
2023/02/08 01:36:42;;;;;;;22.37;8.25;;;;;;;-5.96;68.44;103068.66;1727108;83;21579;-63
2023/02/08 01:39:11;;;;;;;28.17;8.75;;;;;;;-5.98;68.35;103069.14;1723028;82;21128;-63
2023/02/08 01:41:43;;;;;;;21.60;8.88;;;;;;;-6.04;68.45;103070.58;1723179;82;21152;-63
2023/02/08 01:44:17;;;;;;;19.70;7.80;;;;;;;-6.08;68.64;103077.30;1642727;86;21218;-63
2023/02/08 01:46:50;;;;;;;21.10;8.40;;;;;;;-6.09;68.72;103084.89;1627173;87;21206;-62
2023/02/08 01:49:25;;;;;;;21.40;8.10;;;;;;;-6.13;68.80;103093.84;1642704;86;21223;-64
2023/02/08 01:52:02;;;;;;;20.55;7.80;;;;;;;-6.13;68.90;103096.97;1642778;87;21174;-63
2023/02/08 01:54:37;;;;;;;19.98;7.45;;;;;;;-6.12;68.95;103098.28;1642831;87;21558;-63
2023/02/08 01:57:06;;;;;;;19.67;8.20;;;;;;;-6.17;69.01;103108.14;1642400;87;21131;-64
2023/02/08 01:59:40;;;;;;;20.17;7.83;;;;;;;-6.15;69.16;103107.67;1642923;87;21511;-63
2023/02/08 02:02:12;;;;;;;20.25;7.65;;;;;;;-6.16;69.06;103106.36;1677049;83;21143;-63
2023/02/08 02:04:42;;;;;;;20.88;8.18;;;;;;;-6.17;69.31;103108.59;1687159;84;21133;-64
2023/02/08 02:07:10;;;;;;;19.52;7.95;;;;;;;-6.13;69.42;103108.98;1723095;83;21559;-66
2023/02/08 02:09:51;;;;;;;16.93;7.20;;;;;;;-6.08;69.51;103110.66;1723923;82;21131;-63
2023/02/08 02:12:21;;;;;;;20.12;8.00;;;;;;;-6.05;69.46;103118.19;1687156;84;21131;-64
2023/02/08 02:14:51;;;;;;;23.07;8.80;;;;;;;-6.04;69.35;103122.17;1722873;83;21156;-63
2023/02/08 02:17:21;;;;;;;20.02;8.50;;;;;;;-6.04;69.34;103115.95;1722999;82;21642;-64
2023/02/08 02:20:19;;;;;;;19.45;7.97;;;;;;;-6.03;69.44;103116.38;1723248;83;21163;-64
2023/02/08 02:23:27;;;;;;;22.42;9.10;;;;;;;-6.00;69.28;103127.01;1722763;83;21160;-64
2023/02/08 02:26:38;;;;;;;21.40;7.87;;;;;;;-6.03;69.30;103125.72;1687471;84;21168;-63
2023/02/08 02:29:55;;;;;;;20.43;8.00;;;;;;;-6.06;69.48;103125.32;1727375;83;21175;-63
2023/02/08 02:32:41;;;;;;;21.25;7.75;;;;;;;-6.12;69.65;103128.97;1727803;83;21633;-63
2023/02/08 02:35:33;;;;;;;22.58;7.92;;;;;;;-6.13;69.68;103124.54;1723252;83;21164;-64
2023/02/08 02:38:11;;;;;;;22.13;8.25;;;;;;;-6.15;69.82;103128.13;1723552;82;21148;-64
2023/02/08 02:43:40;;;;;;;20.88;7.83;;;;;;;-6.16;69.88;103129.04;1688556;84;21567;-64
2023/02/08 02:43:55;;;;;;;24.45;8.10;;;;;;;-6.18;69.92;103137.52;1709460;83;21555;-63
2023/02/08 02:46:27;;;;;;;22.62;8.35;;;;;;;-6.22;69.98;103142.03;1722901;83;21164;-63
2023/02/08 02:49:19;;;;;;;21.85;7.95;;;;;;;-6.25;69.94;103139.86;1691056;84;21108;-64
2023/02/08 02:52:11;;;;;;;18.92;8.15;;;;;;;-6.32;69.98;103142.19;1725924;83;21163;-63
2023/02/08 02:54:50;;;;;;;23.05;8.60;;;;;;;-6.33;70.11;103142.64;1727266;83;21116;-64
2023/02/08 02:57:25;;;;;;;23.52;9.00;;;;;;;-6.37;69.93;103142.25;1723122;83;21159;-64
2023/02/08 02:59:56;;;;;;;22.23;9.80;;;;;;;-6.48;69.99;103140.19;1687208;84;21104;-65
2023/02/08 03:02:26;;;;;;;23.18;9.05;;;;;;;-6.53;70.26;103144.67;1722692;83;21160;-64
2023/02/08 03:04:57;;;;;;;23.18;8.75;;;;;;;-6.51;70.34;103142.87;1722543;83;21128;-64
2023/02/08 03:07:34;;;;;;;22.85;9.38;;;;;;;-6.47;70.44;103147.29;1722715;82;21566;-64
2023/02/08 03:10:12;;;;;;;;;;;;;;;-6.50;70.39;103148.66;1683534;85;21192;-64
2023/02/08 03:13:12;;;;;;;25.05;9.45;;;;;;;-6.59;70.39;103153.64;1667504;85;20348;-64
2023/02/08 03:16:17;;;;;;;24.77;9.78;;;;;;;-6.66;70.63;103156.41;1722608;82;21108;-65
2023/02/08 03:19:09;;;;;;;22.70;9.43;;;;;;;-6.63;70.73;103166.59;1722353;82;21138;-64
2023/02/08 03:21:49;;;;;;;24.02;8.90;;;;;;;-6.64;70.80;103168.81;1723059;83;21144;-65
2023/02/08 03:24:42;;;;;;;21.90;9.60;;;;;;;-6.61;70.92;103168.78;1720878;83;21152;-63
2023/02/08 03:27:36;;;;;;;24.57;9.33;;;;;;;-6.54;70.95;103166.91;1680669;84;21152;-65
2023/02/08 03:30:14;;;;;;;25.80;8.55;;;;;;;-6.54;70.76;103176.25;1667747;85;21576;-64
2023/02/08 03:33:18;;;;;;;23.42;8.95;;;;;;;-6.64;70.78;103175.94;1722534;83;21135;-65
2023/02/08 03:35:56;;;;;;;21.42;8.75;;;;;;;-6.69;70.94;103173.33;1673035;85;21182;-65
2023/02/08 03:38:33;;;;;;;20.23;8.10;;;;;;;-6.68;70.96;103177.76;1672734;86;21115;-64
2023/02/08 03:41:03;;;;;;;;;;;;;;;-6.67;71.02;103181.31;1675358;86;21592;-64
2023/02/08 03:43:54;;;;;;;21.80;7.85;;;;;;;-6.63;71.05;103186.58;1672637;86;20191;-64
2023/02/08 03:46:34;;;;;;;22.10;8.20;;;;;;;-6.64;70.85;103195.48;1672086;86;21183;-65
2023/02/08 03:49:08;;;;;;;22.05;8.60;;;;;;;-6.64;70.88;103200.81;1672364;86;21654;-64
2023/02/08 03:51:40;;;;;;;24.32;8.65;;;;;;;-6.67;70.95;103199.97;1672921;85;21203;-64
2023/02/08 03:54:20;;;;;;;24.98;9.03;;;;;;;-6.70;70.83;103200.89;1672938;86;21180;-64
2023/02/08 03:57:08;;;;;;;22.22;8.95;;;;;;;-6.76;70.96;103199.63;1672891;86;21635;-64
2023/02/08 03:59:41;;;;;;;20.37;8.00;;;;;;;-6.76;71.14;103201.85;1672686;86;21143;-63
2023/02/08 04:02:13;;;;;;;23.12;8.38;;;;;;;-6.76;71.12;103199.19;1650212;86;21182;-65
2023/02/08 04:04:45;;;;;;;27.60;8.80;;;;;;;-6.84;71.12;103200.17;1650308;86;21183;-65
2023/02/08 04:07:16;;;;;;;24.32;8.00;;;;;;;-6.87;71.35;103210.42;1705127;83;21583;-64
2023/02/08 04:09:45;;;;;;;30.57;9.98;;;;;;;-6.85;71.50;103214.41;1681371;85;21156;-65
2023/02/08 04:12:13;;;;;;;23.22;8.95;;;;;;;-6.86;71.43;103220.19;1722616;83;21176;-64
2023/02/08 04:14:43;;;;;;;23.42;8.83;;;;;;;-6.86;71.56;103232.63;1682401;85;21124;-65
2023/02/08 04:17:13;;;;;;;26.73;9.43;;;;;;;-6.84;71.64;103227.72;1722445;82;21163;-65
2023/02/08 04:19:43;;;;;;;20.92;8.40;;;;;;;-6.80;71.63;103231.23;1722934;82;21128;-64
2023/02/08 04:22:12;;;;;;;24.00;8.83;;;;;;;-6.81;71.54;103238.34;1702811;83;21174;-65
2023/02/08 04:24:41;;;;;;;25.80;8.83;;;;;;;-6.79;71.44;103244.54;1681438;85;21576;-64
2023/02/08 04:27:11;;;;;;;20.65;8.23;;;;;;;-6.79;71.47;103240.99;1722686;83;21108;-65
2023/02/08 04:29:41;;;;;;;23.92;8.68;;;;;;;-6.75;71.42;103242.72;1681770;84;21135;-63
2023/02/08 04:32:10;;;;;;;25.15;9.68;;;;;;;-6.76;71.42;103241.84;1722642;83;21160;-64
2023/02/08 04:34:40;;;;;;;23.90;8.90;;;;;;;-6.77;71.35;103249.86;1616392;88;21649;-66
2023/02/08 04:37:10;;;;;;;21.27;8.50;;;;;;;-6.76;71.19;103257.83;1616377;89;21618;-65
2023/02/08 04:39:39;;;;;;;23.22;8.40;;;;;;;-6.77;71.17;103255.19;1616459;88;21130;-64
2023/02/08 04:42:08;;;;;;;24.10;8.18;;;;;;;-6.80;71.17;103253.89;1616504;88;21191;-64
2023/02/08 04:44:38;;;;;;;23.22;9.05;;;;;;;-6.80;71.30;103253.44;1616274;88;21163;-64
2023/02/08 04:47:07;;;;;;;23.80;9.75;;;;;;;-6.80;71.25;103258.77;1616138;89;21714;-65
2023/02/08 04:49:36;;;;;;;22.07;8.20;;;;;;;-6.86;71.12;103265.50;1616500;88;21158;-64
2023/02/08 04:52:05;;;;;;;24.85;8.98;;;;;;;-6.95;71.10;103269.59;1637882;83;21124;-64
2023/02/08 04:54:34;;;;;;;25.30;8.95;;;;;;;-6.97;71.32;103272.72;1722918;82;21544;-65
2023/02/08 04:57:03;;;;;;;24.35;9.43;;;;;;;-6.92;71.36;103274.89;1682648;84;21156;-65
2023/02/08 04:59:33;;;;;;;28.83;9.35;;;;;;;-6.89;71.34;103274.86;1667612;86;21559;-64
2023/02/08 05:02:03;;;;;;;25.02;9.35;;;;;;;-6.87;71.29;103282.84;1722781;83;21159;-64
2023/02/08 05:04:32;;;;;;;22.73;9.05;;;;;;;-6.89;71.17;103272.20;1722932;82;21171;-66
2023/02/08 05:07:04;;;;;;;23.80;9.70;;;;;;;-6.86;71.19;103272.61;1686246;83;21540;-65
2023/02/08 05:09:33;;;;;;;23.50;8.80;;;;;;;-6.85;71.12;103272.59;1722961;83;21152;-66
2023/02/08 05:12:02;;;;;;;28.92;9.30;;;;;;;-6.87;71.10;103287.72;1684122;83;21180;-65
2023/02/08 05:14:32;;;;;;;24.95;9.85;;;;;;;-6.86;71.19;103281.49;1722541;83;21709;-66
2023/02/08 05:17:01;;;;;;;24.18;8.65;;;;;;;-6.86;71.22;103285.49;1687248;83;21578;-67
2023/02/08 05:19:30;;;;;;;28.10;10.10;;;;;;;-6.87;71.17;103287.72;1722765;82;21151;-66
2023/02/08 05:22:00;;;;;;;23.10;8.30;;;;;;;-6.94;71.11;103291.35;1722657;83;21160;-64
2023/02/08 05:24:33;;;;;;;25.37;9.30;;;;;;;-6.99;71.18;103297.17;1686504;83;21147;-67
2023/02/08 05:27:02;;;;;;;24.92;9.85;;;;;;;-7.02;71.27;103290.54;1703137;83;21187;-66
2023/02/08 05:29:31;;;;;;;19.98;8.23;;;;;;;-7.01;71.39;103298.97;1687493;83;21154;-65
2023/02/08 05:32:00;;;;;;;26.15;11.68;;;;;;;-7.00;71.41;103312.73;1722663;83;21132;-64
2023/02/08 05:34:30;;;;;;;22.15;9.08;;;;;;;-7.05;71.36;103306.55;1723155;82;21176;-66
2023/02/08 05:36:59;;;;;;;22.90;8.63;;;;;;;-7.10;71.57;103315.92;1689304;83;21140;-64
2023/02/08 05:39:29;;;;;;;25.57;11.12;;;;;;;-7.10;71.67;103320.38;1722984;83;21203;-65
2023/02/08 05:41:58;;;;;;;26.25;9.33;;;;;;;-7.12;71.70;103314.17;1722602;82;21124;-65
2023/02/08 05:44:27;;;;;;;24.47;9.55;;;;;;;-7.11;71.91;103322.15;1688283;83;21159;-64
2023/02/08 05:46:55;;;;;;;24.90;9.30;;;;;;;-7.08;71.96;103323.91;1722762;83;21139;-65
2023/02/08 05:49:25;;;;;;;27.25;9.28;;;;;;;-7.11;71.93;103322.60;1722470;83;21104;-66
2023/02/08 05:51:54;;;;;;;24.32;9.73;;;;;;;-7.12;71.95;103328.83;1722614;83;21171;-66
2023/02/08 05:54:24;;;;;;;21.93;8.75;;;;;;;-7.10;72.06;103332.36;1722742;82;21136;-67
2023/02/08 05:56:52;;;;;;;22.52;8.78;;;;;;;-7.11;72.06;103334.59;1687832;83;21168;-64
2023/02/08 05:59:21;;;;;;;24.00;10.25;;;;;;;-7.09;72.17;103338.13;1722880;83;21133;-65
2023/02/08 06:01:50;;;;;;;25.97;10.40;;;;;;;-7.07;72.18;103341.22;1722845;82;21117;-66
2023/02/08 06:04:19;;;;;;;30.32;9.75;;;;;;;-7.05;72.17;103339.87;1728693;82;21639;-65
2023/02/08 06:06:50;;;;;;;27.67;10.08;;;;;;;-7.10;72.11;103343.91;1723158;83;21548;-65
2023/02/08 06:09:20;;;;;;;25.80;9.45;;;;;;;-7.09;72.25;103342.13;1723527;82;21148;-66
2023/02/08 06:11:49;;;;;;;23.57;9.10;;;;;;;-7.07;72.33;103350.98;1722740;82;22099;-65
2023/02/08 06:14:20;;;;;;;24.55;9.78;;;;;;;-7.12;72.30;103352.36;1689020;84;22095;-66
2023/02/08 06:16:49;;;;;;;26.52;9.25;;;;;;;-7.16;72.33;103348.36;1723470;82;21148;-66
2023/02/08 06:19:19;;;;;;;24.45;9.88;;;;;;;-7.19;72.41;103352.38;1682830;84;21151;-66
2023/02/08 06:21:48;;;;;;;25.17;10.32;;;;;;;-7.17;72.56;103351.92;1702720;83;21455;-65
2023/02/08 06:24:17;;;;;;;25.50;8.65;;;;;;;-7.11;72.60;103346.13;1722669;83;21577;-66
2023/02/08 06:26:48;;;;;;;26.73;9.85;;;;;;;-7.05;72.63;103354.52;1722947;82;21187;-66
2023/02/08 06:29:18;;;;;;;29.23;8.83;;;;;;;-6.99;72.41;103357.14;1723883;82;21211;-65
2023/02/08 06:31:48;;;;;;;26.60;10.05;;;;;;;-6.98;72.26;103357.58;1689526;84;21591;-65
2023/02/08 06:34:16;;;;;;;24.87;10.23;;;;;;;-7.04;72.13;103363.84;1727621;83;21164;-66
2023/02/08 06:36:45;;;;;;;24.18;9.25;;;;;;;-7.06;72.14;103360.75;1723624;82;21120;-65
2023/02/08 06:39:14;;;;;;;25.90;10.03;;;;;;;-7.07;72.27;103370.52;1684991;84;21598;-66
2023/02/08 06:41:43;;;;;;;25.52;9.35;;;;;;;-7.06;72.31;103377.62;1727461;83;21120;-66
2023/02/08 06:44:12;;;;;;;24.95;9.85;;;;;;;-7.05;72.38;103371.84;1687448;84;21645;-65
2023/02/08 06:46:42;;;;;;;28.75;9.88;;;;;;;-7.01;72.40;103377.59;1722776;82;22024;-66
2023/02/08 06:49:11;;;;;;;22.67;8.85;;;;;;;-6.99;72.36;103381.57;1687217;84;21104;-66
2023/02/08 06:51:41;;;;;;;24.80;8.78;;;;;;;-6.97;72.28;103379.78;1722867;82;21602;-65
2023/02/08 06:54:10;;;;;;;28.42;10.08;;;;;;;-7.01;72.12;103386.91;1722791;82;21123;-66
2023/02/08 06:56:41;;;;;;;27.75;9.83;;;;;;;-7.06;72.24;103382.95;1723007;82;21195;-65
2023/02/08 06:59:12;;;;;;;26.00;9.95;;;;;;;-7.05;72.27;103379.84;1682955;84;21617;-65
2023/02/08 07:01:41;;;;;;;28.77;9.85;;;;;;;-7.04;72.35;103377.16;1722904;82;21175;-67
2023/02/08 10:07:50;;;;;;;42.62;11.88;;;;;;;-3.40;63.75;103343.92;1828479;77;25768;-66
2023/02/08 10:10:46;;;;;;;45.00;11.33;;;;;;;-3.35;63.70;103337.11;1788236;80;21139;-67
2023/02/08 10:13:35;;;;;;;37.75;10.95;;;;;;;-3.35;63.70;103337.11;1788875;80;21157;-69
2023/02/08 10:16:31;;;;;;;36.28;10.95;;;;;;;-3.29;63.85;103335.16;1787939;80;22028;-66
2023/02/08 10:19:37;;;;;;;45.88;12.03;;;;;;;-3.24;63.87;103340.45;1775461;79;21134;-65
2023/02/08 10:22:30;;;;;;;49.13;11.80;;;;;;;-3.14;63.71;103346.02;1766253;76;21501;-62
2023/02/08 10:25:31;;;;;;;29.65;9.23;;;;;;;-3.11;63.23;103338.35;1739397;82;21177;-63
2023/02/08 10:28:32;;;;;;;39.90;11.18;;;;;;;-3.08;63.18;103341.84;1722415;82;21197;-64
2023/02/08 10:31:10;;;;;;;57.23;10.72;;;;;;;-3.01;63.01;103347.47;1746307;82;21091;-64
2023/02/08 10:33:56;;;;;;;24.15;9.58;;;;;;;-2.94;63.88;103337.47;1746269;82;21529;-64
2023/02/08 10:36:35;;;;;;;59.38;12.30;;;;;;;-2.90;62.31;103348.08;1745972;82;21587;-63
2023/02/08 10:39:20;;;;;;;42.70;11.40;;;;;;;-2.91;61.76;103340.95;1746200;82;21150;-62
2023/02/08 10:41:54;;;;;;;41.80;11.22;;;;;;;-2.88;62.08;103349.39;1746223;82;21118;-61
2023/02/08 10:44:36;;;;;;;33.00;10.53;;;;;;;-2.81;62.12;103346.08;1746147;81;21071;-62
2023/02/08 10:47:39;;;;;;;47.05;11.70;;;;;;;-2.76;61.89;103344.16;1732482;82;21173;-63
2023/02/08 10:50:36;;;;;;;70.52;12.37;;;;;;;-2.72;61.83;103342.70;1746122;82;21376;-63
2023/02/08 10:53:05;;;;;;;31.77;11.28;;;;;;;-2.68;61.84;103337.67;1746315;82;21587;-62
2023/02/08 10:55:37;;;;;;;38.90;11.35;;;;;;;-2.64;61.54;103341.16;1746204;81;21122;-62
2023/02/08 10:58:17;;;;;;;40.08;12.18;;;;;;;-2.61;61.63;103337.05;1746230;82;21110;-64
2023/02/08 11:00:48;;;;;;;39.50;11.28;;;;;;;-2.63;61.00;103340.23;1746175;82;21137;-62
2023/02/08 11:03:26;;;;;;;33.15;12.03;;;;;;;-2.63;61.00;103337.55;1746089;82;21118;-62
2023/02/08 11:05:57;;;;;;;32.98;11.18;;;;;;;-2.63;61.25;103338.89;1746016;81;21102;-63
2023/02/08 11:08:27;;;;;;;54.60;13.35;;;;;;;-2.59;61.41;103348.66;1746130;81;21126;-61
2023/02/08 11:11:03;;;;;;;49.67;13.20;;;;;;;-2.56;61.55;103343.21;1745853;81;21615;-62
2023/02/08 11:13:45;;;;;;;29.15;11.08;;;;;;;-2.54;61.38;103349.88;1746412;82;21239;-63
2023/02/08 11:16:28;;;;;;;29.00;11.33;;;;;;;-2.50;61.17;103348.41;1746142;82;21146;-64
2023/02/08 11:19:01;;;;;;;38.90;11.90;;;;;;;-2.49;60.96;103338.09;1725891;82;21546;-63
2023/02/08 11:21:39;;;;;;;37.93;11.65;;;;;;;-2.43;61.14;103349.13;1745775;81;21173;-61
2023/02/08 11:24:26;;;;;;;29.52;12.30;;;;;;;-2.39;61.09;103353.48;1748915;81;21153;-62
2023/02/08 11:27:00;;;;;;;40.28;11.95;;;;;;;-2.38;61.03;103353.91;1751266;82;21090;-60
2023/02/08 11:29:31;;;;;;;37.45;11.93;;;;;;;-2.33;61.16;103354.66;1751394;82;21118;-63
2023/02/08 11:32:05;;;;;;;46.37;12.63;;;;;;;-2.31;61.15;103353.70;1751197;82;21176;-60
2023/02/08 11:34:37;;;;;;;30.08;11.80;;;;;;;-2.27;61.18;103360.75;1722342;82;21616;-62
2023/02/08 11:37:24;;;;;;;52.55;13.00;;;;;;;-2.24;61.04;103362.46;1751606;81;21165;-60
2023/02/08 11:39:59;;;;;;;38.85;12.13;;;;;;;-2.26;60.88;103358.94;1766170;81;21622;-61
2023/02/08 11:42:39;;;;;;;30.32;11.43;;;;;;;-2.27;61.10;103358.05;1729782;81;21619;-62
2023/02/08 11:45:19;;;;;;;37.50;12.23;;;;;;;-2.26;61.17;103357.59;1682788;84;21574;-61
2023/02/08 11:47:48;;;;;;;28.83;10.82;;;;;;;-2.26;61.03;103353.57;1702278;83;21172;-63
2023/02/08 11:50:26;;;;;;;28.70;11.12;;;;;;;-2.25;61.13;103354.87;1732669;81;21117;-62
2023/02/08 11:52:58;;;;;;;39.33;11.50;;;;;;;-2.25;60.84;103349.50;1728559;83;21215;-63
2023/02/08 11:55:30;;;;;;;40.90;11.18;;;;;;;-2.27;60.90;103349.12;1732847;83;21152;-61
2023/02/08 11:58:24;;;;;;;47.17;12.07;;;;;;;-2.28;60.65;103354.08;1732593;81;21128;-59
2023/02/08 12:01:05;;;;;;;36.05;11.20;;;;;;;-2.31;60.84;103351.47;1702306;83;21172;-64
2023/02/08 12:03:39;;;;;;;28.75;10.55;;;;;;;-2.33;60.53;103355.55;1732931;81;21184;-61
2023/02/08 12:06:39;;;;;;;56.77;12.73;;;;;;;-2.30;60.73;103347.41;1732770;81;21172;-62
2023/02/08 12:09:22;;;;;;;;;;;;;;;-2.27;60.69;103347.31;1707412;83;21128;-62
2023/02/08 12:12:02;;;;;;;35.50;10.75;;;;;;;-2.27;60.55;103347.31;1714005;83;20555;-62
2023/02/08 12:15:06;;;;;;;31.33;10.50;;;;;;;-2.26;60.76;103349.54;1719252;82;21148;-63
2023/02/08 12:18:13;;;;;;;65.80;12.05;;;;;;;-2.20;60.92;103344.45;1671823;85;21188;-60
2023/02/08 12:20:46;;;;;;;56.85;10.90;;;;;;;-2.13;61.00;103345.58;1676179;84;21571;-60
2023/02/08 12:23:31;;;;;;;30.72;9.98;;;;;;;-2.06;60.81;103348.97;1751133;81;21147;-61
2023/02/08 12:26:23;;;;;;;22.98;9.18;;;;;;;-2.02;60.55;103351.53;1752574;81;21163;-62
2023/02/08 12:29:17;;;;;;;35.08;9.75;;;;;;;-1.99;60.57;103345.18;1751080;82;21569;-61
2023/02/08 12:32:12;;;;;;;25.70;9.23;;;;;;;-1.96;61.70;103350.47;1751108;82;21148;-61
2023/02/08 12:35:02;;;;;;;39.95;10.85;;;;;;;-1.93;60.79;103349.06;1751403;81;21135;-62
2023/02/08 12:40:54;;;;;;;32.70;10.85;;;;;;;-1.96;60.21;103343.28;1709684;82;21654;-61
2023/02/08 12:43:31;;;;;;;39.90;9.90;;;;;;;-1.96;60.26;103344.63;1709869;83;21163;-62
2023/02/08 12:46:28;;;;;;;43.50;10.65;;;;;;;-1.93;60.34;103341.89;1718733;82;21115;-61
2023/02/08 12:49:43;;;;;;;38.88;10.72;;;;;;;-1.92;60.53;103340.96;1716748;82;21222;-62
2023/02/08 12:52:27;;;;;;;41.65;11.60;;;;;;;-1.86;60.40;103344.39;1697379;84;21232;-61
2023/02/08 12:55:02;;;;;;;25.17;8.48;;;;;;;-1.82;60.27;103340.22;1667805;85;21190;-61
2023/02/08 12:57:32;;;;;;;25.23;9.35;;;;;;;-1.80;60.14;103342.87;1690324;83;21557;-62
2023/02/08 13:00:09;;;;;;;27.45;9.58;;;;;;;-1.79;59.55;103341.94;1690491;85;21630;-62
2023/02/08 13:02:48;;;;;;;74.50;12.05;;;;;;;-1.72;61.39;103337.67;1720011;83;21196;-62
2023/02/08 13:05:19;;;;;;;56.18;11.12;;;;;;;-1.65;60.73;103340.59;1720756;83;21125;-62
2023/02/08 13:07:50;;;;;;;26.25;9.23;;;;;;;-1.65;60.37;103344.63;1690192;84;21134;-61
2023/02/08 13:10:30;;;;;;;31.60;9.68;;;;;;;-1.66;59.83;103340.17;1720413;82;21541;-61
2023/02/08 13:13:22;;;;;;;26.33;9.58;;;;;;;-1.70;59.70;103334.94;1758990;81;21121;-61
2023/02/08 13:16:00;;;;;;;29.00;9.33;;;;;;;-1.72;59.76;103334.98;1671081;85;21836;-61
2023/02/08 13:18:34;;;;;;;51.70;10.15;;;;;;;-1.74;59.36;103333.27;1690450;85;21154;-62
2023/02/08 13:21:07;;;;;;;26.87;8.93;;;;;;;-1.77;59.36;103325.30;1690303;84;21161;-62
2023/02/08 13:23:45;;;;;;;43.13;10.50;;;;;;;-1.81;59.30;103319.14;1757618;80;21118;-61
2023/02/08 13:26:25;;;;;;;25.20;9.83;;;;;;;-1.80;59.55;103326.27;1746104;80;21534;-64
2023/02/08 13:28:56;;;;;;;41.00;9.30;;;;;;;-1.82;59.63;103321.87;1745640;82;21158;-62
2023/02/08 13:31:34;;;;;;;31.75;9.40;;;;;;;-1.81;59.50;103315.57;1745556;81;21624;-60
2023/02/08 13:34:28;;;;;;;16.90;7.05;;;;;;;-1.82;59.16;103311.13;1745929;82;21094;-61
2023/02/08 13:37:00;;;;;;;19.32;8.50;;;;;;;-1.85;59.22;103313.44;1745436;81;21181;-62
2023/02/08 13:39:39;;;;;;;29.10;8.53;;;;;;;-1.86;59.36;103308.99;1745675;82;21115;-64
2023/02/08 13:42:21;;;;;;;45.38;9.95;;;;;;;-1.86;59.46;103310.33;1745609;82;21122;-61
2023/02/08 13:44:54;;;;;;;26.02;9.38;;;;;;;-1.85;59.46;103307.19;1745750;82;21202;-63
2023/02/08 13:47:39;;;;;;;22.55;7.97;;;;;;;-1.82;59.48;103304.41;1745489;82;21205;-63
2023/02/08 13:50:37;;;;;;;22.13;8.40;;;;;;;-1.81;59.15;103296.76;1735865;82;21230;-62
2023/02/08 13:53:06;;;;;;;31.37;8.80;;;;;;;-1.80;59.30;103292.68;1725164;82;21153;-61
2023/02/08 13:55:55;;;;;;;30.08;8.48;;;;;;;-1.81;59.10;103284.66;1745425;81;21203;-60
2023/02/08 13:58:49;;;;;;;20.20;8.33;;;;;;;-1.82;59.14;103291.84;1745404;82;21545;-63
2023/02/08 14:01:23;;;;;;;40.03;9.18;;;;;;;-1.83;59.37;103291.43;1745497;81;21581;-62
2023/02/08 14:04:15;;;;;;;33.10;9.28;;;;;;;-1.83;59.53;103291.89;1745432;82;21584;-61
2023/02/08 14:07:27;;;;;;;31.95;9.10;;;;;;;-1.84;59.58;103295.05;1745586;82;21134;-63
2023/02/08 14:10:25;;;;;;;40.58;8.43;;;;;;;-1.84;59.86;103286.98;1745716;81;21094;-63
2023/02/08 14:13:23;;;;;;;50.95;10.43;;;;;;;-1.84;59.71;103289.67;1745551;81;21225;-63
2023/02/08 14:16:37;;;;;;;41.88;9.60;;;;;;;-1.87;59.51;103287.08;1760411;79;21127;-61
2023/02/08 14:19:22;;;;;;;23.90;9.10;;;;;;;-1.86;59.59;103294.21;1748040;81;21119;-64
2023/02/08 14:22:15;;;;;;;27.62;8.95;;;;;;;-1.84;59.75;103295.05;1740895;81;21115;-63
2023/02/08 14:24:51;;;;;;;21.73;8.23;;;;;;;-1.85;59.56;103294.63;1778912;80;21098;-64
2023/02/08 14:27:29;;;;;;;32.03;8.73;;;;;;;-1.88;59.51;103295.19;1789736;79;21556;-63
2023/02/08 14:30:04;;;;;;;18.55;7.90;;;;;;;-1.90;59.90;103291.20;1790530;80;21145;-63
2023/02/08 14:32:37;;;;;;;24.63;7.80;;;;;;;-1.90;59.72;103299.27;1790569;80;21110;-63
2023/02/08 14:35:24;;;;;;;23.02;8.53;;;;;;;-1.91;59.63;103297.50;1752379;80;21109;-62
2023/02/08 14:38:22;;;;;;;30.50;7.67;;;;;;;-1.93;59.35;103296.67;1749971;81;21195;-64
2023/02/08 14:40:53;;;;;;;31.95;7.00;;;;;;;-1.97;59.45;103296.31;1749395;82;21609;-64
2023/02/08 14:43:38;;;;;;;28.27;7.33;;;;;;;-2.01;59.30;103292.83;1732485;82;21125;-65
2023/02/08 14:46:42;;;;;;;15.40;6.40;;;;;;;-2.01;59.23;103295.52;1748901;82;21128;-65
2023/02/08 14:49:17;;;;;;;22.80;6.72;;;;;;;-2.02;59.27;103294.22;1733844;80;21164;-63
2023/02/08 14:51:59;;;;;;;16.25;6.08;;;;;;;-2.01;59.28;103293.30;1760828;80;21520;-63
2023/02/08 14:54:42;;;;;;;41.13;8.88;;;;;;;-2.01;59.12;103295.52;1797143;80;21130;-63
2023/02/08 14:57:33;;;;;;;19.30;7.10;;;;;;;-2.03;59.03;103299.18;1790791;80;21145;-62
2023/02/08 15:00:12;;;;;;;35.68;8.38;;;;;;;-2.04;59.09;103293.39;1762442;80;21168;-66
2023/02/08 15:02:41;;;;;;;25.92;7.12;;;;;;;-2.05;59.05;103302.38;1790862;80;21642;-64
2023/02/08 15:05:24;;;;;;;38.83;10.32;;;;;;;-2.05;59.04;103297.00;1790699;80;21549;-63
2023/02/08 15:07:59;;;;;;;43.87;10.48;;;;;;;-2.06;59.20;103293.90;1790639;80;21599;-64
2023/02/08 15:10:29;;;;;;;31.40;10.25;;;;;;;-2.08;59.31;103293.06;1790523;80;21114;-63